createdAt,value
2022-08-05T00:00:46.441Z,3.03
2022-08-05T00:03:16.290Z,2.72
2022-08-05T00:06:06.610Z,3.38
2022-08-05T00:08:34.476Z,3.15
2022-08-05T00:11:02.835Z,3.70
2022-08-05T00:13:38.922Z,2.97
2022-08-05T00:16:08.453Z,3.17
2022-08-05T00:18:35.449Z,3.20
2022-08-05T00:21:01.806Z,3.10
2022-08-05T00:23:31.087Z,3.35
2022-08-05T00:26:13.546Z,3.20
2022-08-05T00:28:43.492Z,3.50
2022-08-05T00:31:12.837Z,3.42
2022-08-05T00:34:54.740Z,3.70
2022-08-05T00:37:10.632Z,3.70
2022-08-05T00:39:13.916Z,4.20
2022-08-05T00:41:51.546Z,3.60
2022-08-05T00:44:21.873Z,4.80
2022-08-05T00:46:54.214Z,4.05
2022-08-05T00:49:28.095Z,5.05
2022-08-05T00:51:59.291Z,4.32
2022-08-05T00:54:28.125Z,4.97
2022-08-05T00:56:56.731Z,5.97
2022-08-05T00:59:23.051Z,6.38
2022-08-05T01:01:49.470Z,6.47
2022-08-05T01:04:19.916Z,6.82
2022-08-05T01:06:52.966Z,6.90
2022-08-05T01:09:20.256Z,8.00
2022-08-05T01:11:50.802Z,10.32
2022-08-05T01:14:28.313Z,12.02
2022-08-05T01:17:17.723Z,12.93
2022-08-05T01:20:01.182Z,13.15
2022-08-05T01:22:57.255Z,13.57
2022-08-05T01:25:40.425Z,14.55
2022-08-05T01:28:13.589Z,13.75
2022-08-05T01:30:53.511Z,13.88
2022-08-05T01:33:25.232Z,13.80
2022-08-05T01:35:55.578Z,13.98
2022-08-05T01:38:29.292Z,12.48
2022-08-05T01:40:59.520Z,11.75
2022-08-05T01:43:27.772Z,12.63
2022-08-05T01:45:57.215Z,11.65
2022-08-05T01:48:27.042Z,11.60
2022-08-05T01:50:55.614Z,12.25
2022-08-05T01:53:57.200Z,12.77
2022-08-05T01:56:13.731Z,11.07
2022-08-05T01:59:03.239Z,9.80
2022-08-05T02:01:34.201Z,10.35
2022-08-05T02:04:09.129Z,10.85
2022-08-05T02:06:38.765Z,10.70
2022-08-05T02:09:06.440Z,11.18
2022-08-05T02:11:48.182Z,10.68
2022-08-05T02:14:28.875Z,12.25
2022-08-05T02:17:04.986Z,12.40
2022-08-05T02:19:35.057Z,10.43
2022-08-05T02:22:09.080Z,10.07
2022-08-05T02:24:51.514Z,10.18
2022-08-05T02:27:30.198Z,10.30
2022-08-05T02:30:10.298Z,10.35
2022-08-05T02:32:38.000Z,10.98
2022-08-05T02:35:14.511Z,11.43
2022-08-05T02:37:47.772Z,14.55
2022-08-05T02:40:21.288Z,17.90
2022-08-05T02:42:52.675Z,18.38
2022-08-05T02:45:24.255Z,20.42
2022-08-05T02:48:07.072Z,23.42
2022-08-05T02:50:43.658Z,24.70
2022-08-05T02:53:18.928Z,25.15
2022-08-05T02:55:54.327Z,26.38
2022-08-05T02:58:26.887Z,26.30
2022-08-05T03:00:56.512Z,25.60
2022-08-05T03:03:23.533Z,26.25
2022-08-05T03:06:55.890Z,26.75
2022-08-05T03:08:42.812Z,26.75
2022-08-05T03:11:57.390Z,26.13
2022-08-05T03:14:07.891Z,26.05
2022-08-05T03:16:35.808Z,26.13
2022-08-05T03:19:04.201Z,26.98
2022-08-05T03:21:44.212Z,26.35
2022-08-05T03:24:15.539Z,26.05
2022-08-05T03:26:41.952Z,24.80
2022-08-05T03:29:12.449Z,26.35
2022-08-05T03:31:56.680Z,25.10
2022-08-05T03:34:24.358Z,24.77
2022-08-05T03:36:50.978Z,25.38
2022-08-05T03:39:26.578Z,24.98
2022-08-05T03:41:56.343Z,25.67
2022-08-05T03:44:23.350Z,26.52
2022-08-05T03:46:49.793Z,26.23
2022-08-05T03:49:16.255Z,28.35
2022-08-05T03:52:50.073Z,27.85
2022-08-05T03:56:01.935Z,29.42
2022-08-05T03:57:51.903Z,30.85
2022-08-05T04:00:19.871Z,32.58
2022-08-05T04:02:58.870Z,32.38
2022-08-05T04:05:33.201Z,34.25
2022-08-05T04:08:03.467Z,33.75
2022-08-05T04:10:37.922Z,35.78
2022-08-05T04:13:06.415Z,35.75
2022-08-05T04:15:36.019Z,36.97
2022-08-05T04:18:06.735Z,37.65
2022-08-05T04:20:34.008Z,37.75
2022-08-05T04:23:00.383Z,36.90
2022-08-05T04:25:56.619Z,36.53
2022-08-05T04:28:13.980Z,36.58
2022-08-05T04:30:41.359Z,37.65
2022-08-05T04:33:09.396Z,36.75
2022-08-05T04:36:16.177Z,33.53
2022-08-05T04:38:22.260Z,33.97
2022-08-05T04:41:06.508Z,34.08
2022-08-05T04:43:34.138Z,36.15
2022-08-05T04:46:00.659Z,33.08
2022-08-05T04:48:28.415Z,34.70
2022-08-05T04:51:02.905Z,34.35
2022-08-05T04:53:36.502Z,35.70
2022-08-05T04:56:33.959Z,33.60
2022-08-05T04:58:52.615Z,30.98
2022-08-05T05:02:05.740Z,32.70
2022-08-05T05:04:05.270Z,31.85
2022-08-05T05:06:39.034Z,29.95
2022-08-05T05:09:07.507Z,33.70
2022-08-05T05:11:42.173Z,33.85
2022-08-05T05:14:27.877Z,34.53
2022-08-05T05:16:58.534Z,35.08
2022-08-05T05:19:26.613Z,35.58
2022-08-05T05:21:55.563Z,29.15
2022-08-05T05:24:22.198Z,26.98
2022-08-05T05:27:08.514Z,23.17
2022-08-05T05:30:03.400Z,23.83
2022-08-05T05:32:21.183Z,26.08
2022-08-05T05:34:47.525Z,21.83
2022-08-05T05:37:13.940Z,21.88
2022-08-05T05:39:42.539Z,19.48
2022-08-05T05:42:11.625Z,18.58
2022-08-05T05:44:44.416Z,19.10
2022-08-05T05:47:21.244Z,17.67
2022-08-05T05:49:52.615Z,16.42
2022-08-05T05:55:07.388Z,15.90
2022-08-05T05:57:42.894Z,14.30
2022-08-05T06:00:20.544Z,16.08
2022-08-05T06:02:53.967Z,15.60
2022-08-05T06:05:20.586Z,15.48
2022-08-05T06:07:57.846Z,16.13
2022-08-05T06:10:29.403Z,15.93
2022-08-05T06:13:00.899Z,15.95
2022-08-05T06:16:30.697Z,15.60
2022-08-05T06:18:13.567Z,15.30
2022-08-05T06:20:41.757Z,16.23
2022-08-05T06:23:14.145Z,15.40
2022-08-05T06:26:12.553Z,14.38
2022-08-05T06:28:28.646Z,14.40
2022-08-05T06:30:55.532Z,14.35
2022-08-05T06:33:44.413Z,13.07
2022-08-05T06:36:10.158Z,12.57
2022-08-05T06:38:37.189Z,12.90
2022-08-05T06:41:04.762Z,12.60
2022-08-05T06:43:57.807Z,13.75
2022-08-05T06:46:17.730Z,13.02
2022-08-05T06:48:56.050Z,13.88
2022-08-05T06:51:30.183Z,13.27
2022-08-05T06:54:02.518Z,13.02
2022-08-05T06:56:34.541Z,12.68
2022-08-05T06:59:08.633Z,11.55
2022-08-05T07:01:36.243Z,11.32
2022-08-05T07:04:03.378Z,10.50
2022-08-05T07:06:30.117Z,11.05
2022-08-05T07:08:59.115Z,10.90
2022-08-05T07:11:25.746Z,11.98
2022-08-05T07:13:59.743Z,12.60
2022-08-05T07:17:56.257Z,13.23
2022-08-05T07:19:16.052Z,13.63
2022-08-05T07:22:01.479Z,14.65
2022-08-05T07:24:29.996Z,15.88
2022-08-05T07:26:56.751Z,17.33
2022-08-05T07:29:25.371Z,17.98
2022-08-05T07:32:09.939Z,16.50
2022-08-05T07:34:40.447Z,15.82
2022-08-05T07:37:09.162Z,16.70
2022-08-05T07:40:04.578Z,17.13
2022-08-05T07:42:33.427Z,19.67
2022-08-05T07:45:00.831Z,19.67
2022-08-05T07:47:27.300Z,18.77
2022-08-05T07:50:09.268Z,19.25
2022-08-05T07:52:43.059Z,19.38
2022-08-05T07:55:43.994Z,17.17
2022-08-05T07:58:02.985Z,15.02
2022-08-05T08:00:30.415Z,16.92
2022-08-05T08:03:15.375Z,14.80
2022-08-05T08:05:49.416Z,12.75
2022-08-05T08:08:16.619Z,12.27
2022-08-05T08:10:48.987Z,12.55
2022-08-05T08:13:21.929Z,11.48
2022-08-05T08:16:35.948Z,10.32
2022-08-05T08:18:42.387Z,10.63
2022-08-05T08:21:17.745Z,11.25
2022-08-05T08:24:02.807Z,11.32
2022-08-05T08:26:30.620Z,11.73
2022-08-05T08:29:02.090Z,11.88
2022-08-05T08:31:44.791Z,13.73
2022-08-05T08:34:11.127Z,13.95
2022-08-05T08:36:52.435Z,14.35
2022-08-05T08:39:22.201Z,16.02
2022-08-05T08:41:51.824Z,16.13
2022-08-05T08:45:23.125Z,16.45
2022-08-05T08:47:47.453Z,16.73
2022-08-05T08:50:30.478Z,17.67
2022-08-05T08:53:01.400Z,17.02
2022-08-05T08:56:01.877Z,18.10
2022-08-05T08:58:15.680Z,18.35
2022-08-05T09:00:42.081Z,18.40
2022-08-05T09:03:09.928Z,17.92
2022-08-05T09:05:38.368Z,18.48
2022-08-05T09:08:26.622Z,18.15
2022-08-05T09:10:57.288Z,16.17
2022-08-05T09:13:24.499Z,17.42
2022-08-05T09:15:58.027Z,16.60
2022-08-05T09:18:25.545Z,13.65
2022-08-05T09:20:51.870Z,11.20
2022-08-05T09:23:21.935Z,11.80
2022-08-05T09:26:01.029Z,10.27
2022-08-05T09:28:33.559Z,8.88
2022-08-05T09:31:44.192Z,8.73
2022-08-05T09:33:57.565Z,8.70
2022-08-05T09:36:27.612Z,9.40
2022-08-05T09:39:18.262Z,10.93
2022-08-05T09:42:05.562Z,12.85
2022-08-05T09:44:40.969Z,15.88
2022-08-05T09:47:10.502Z,15.65
2022-08-05T09:50:01.503Z,14.63
2022-08-05T09:52:35.375Z,18.25
2022-08-05T09:55:58.453Z,18.42
2022-08-05T09:57:58.415Z,18.20
2022-08-05T10:00:25.322Z,19.42
2022-08-05T10:02:53.516Z,19.83
2022-08-05T10:05:23.692Z,20.55
2022-08-05T10:08:34.678Z,23.52
2022-08-05T10:10:45.556Z,24.88
2022-08-05T10:13:47.262Z,23.48
2022-08-05T10:16:41.758Z,22.63
2022-08-05T10:19:19.193Z,17.58
2022-08-05T10:21:50.404Z,19.65
2022-08-05T10:24:19.339Z,20.35
2022-08-05T10:26:52.707Z,17.85
2022-08-05T10:29:23.882Z,20.75
2022-08-05T10:33:01.409Z,19.50
2022-08-05T10:34:57.098Z,19.17
2022-08-05T10:37:40.514Z,19.10
2022-08-05T10:40:31.507Z,16.80
2022-08-05T10:43:04.695Z,16.98
2022-08-05T10:45:40.044Z,15.00
2022-08-05T10:48:57.163Z,13.40
2022-08-05T10:51:29.274Z,13.32
2022-08-05T10:54:23.153Z,11.43
2022-08-05T10:56:52.796Z,12.43
2022-08-05T11:00:03.710Z,10.30
2022-08-05T11:02:34.660Z,10.95
2022-08-05T11:05:06.913Z,9.77
2022-08-05T11:08:02.529Z,8.20
2022-08-05T11:10:27.247Z,8.90
2022-08-05T11:12:55.815Z,8.65
2022-08-05T11:16:00.210Z,9.57
2022-08-05T11:18:32.632Z,8.57
2022-08-05T11:24:04.386Z,10.27
2022-08-05T11:26:32.467Z,9.85
2022-08-05T11:29:06.585Z,10.93
2022-08-05T11:31:56.778Z,9.50
2022-08-05T11:34:39.674Z,9.32
2022-08-05T11:38:29.840Z,8.38
2022-08-05T11:40:00.520Z,8.55
2022-08-05T11:42:32.336Z,8.30
2022-08-05T11:45:05.963Z,8.52
2022-08-05T11:47:50.548Z,9.55
2022-08-05T11:50:21.394Z,8.73
2022-08-05T11:52:49.479Z,7.43
2022-08-05T11:55:16.685Z,6.32
2022-08-05T11:58:09.443Z,6.45
2022-08-05T12:00:38.446Z,7.13
2022-08-05T12:03:28.843Z,6.40
2022-08-05T12:06:06.017Z,5.00
2022-08-05T12:09:08.640Z,4.55
2022-08-05T12:11:46.323Z,4.75
2022-08-05T12:14:13.852Z,5.10
2022-08-05T12:16:45.351Z,4.78
2022-08-05T12:20:17.204Z,5.15
2022-08-05T12:21:59.675Z,5.07
2022-08-05T12:24:27.668Z,5.28
2022-08-05T12:26:54.098Z,5.32
2022-08-05T12:29:26.208Z,4.90
2022-08-05T12:31:55.181Z,5.88
2022-08-05T12:34:25.908Z,6.38
2022-08-05T12:36:53.791Z,5.25
2022-08-05T12:39:20.766Z,5.60
2022-08-05T12:41:47.320Z,5.72
2022-08-05T12:44:32.786Z,6.15
2022-08-05T12:50:03.016Z,5.40
2022-08-05T12:52:32.296Z,5.18
2022-08-05T12:55:26.854Z,5.85
2022-08-05T12:58:49.212Z,4.85
2022-08-05T13:02:05.902Z,4.65
2022-08-05T13:03:32.890Z,4.65
2022-08-05T13:06:01.229Z,4.15
2022-08-05T13:08:32.110Z,4.82
2022-08-05T13:11:02.461Z,3.35
2022-08-05T13:14:06.686Z,3.35
2022-08-05T13:16:17.161Z,3.05
2022-08-05T13:18:55.188Z,3.30
2022-08-05T13:21:28.219Z,2.78
2022-08-05T13:24:04.982Z,2.67
2022-08-05T13:26:31.375Z,2.58
2022-08-05T13:28:58.959Z,2.75
2022-08-05T13:31:33.714Z,2.88
2022-08-05T13:34:21.710Z,2.45
2022-08-05T13:36:51.984Z,2.53
2022-08-05T13:40:14.424Z,3.00
2022-08-05T13:42:04.918Z,2.15
2022-08-05T13:44:32.340Z,2.05
2022-08-05T13:47:02.315Z,1.90
2022-08-05T13:49:35.518Z,2.50
2022-08-05T13:52:14.637Z,2.60
2022-08-05T13:54:41.681Z,1.98
2022-08-05T13:57:09.400Z,2.05
2022-08-05T13:59:37.305Z,2.20
2022-08-05T14:02:26.620Z,2.10
2022-08-05T14:04:55.978Z,2.03
2022-08-05T14:08:00.497Z,1.90
2022-08-05T14:10:28.631Z,2.03
2022-08-05T14:12:57.750Z,1.75
2022-08-05T14:16:07.706Z,1.85
2022-08-05T14:18:17.547Z,1.95
2022-08-05T14:20:54.964Z,2.28
2022-08-05T14:23:25.414Z,1.73
2022-08-05T14:25:58.509Z,1.38
2022-08-05T14:28:27.027Z,1.90
2022-08-05T14:30:54.354Z,1.90
2022-08-05T14:33:22.600Z,1.77
2022-08-05T14:35:51.804Z,1.77
2022-08-05T14:38:32.093Z,2.05
2022-08-05T14:41:00.797Z,1.90
2022-08-05T14:44:01.832Z,1.75
2022-08-05T14:46:13.610Z,2.22
2022-08-05T14:48:40.426Z,1.73
2022-08-05T14:51:06.816Z,2.03
2022-08-05T14:53:34.980Z,2.00
2022-08-05T14:56:11.353Z,1.80
2022-08-05T14:58:38.628Z,2.05
2022-08-05T15:01:16.152Z,1.75
2022-08-05T15:03:43.237Z,2.00
2022-08-05T15:06:15.048Z,2.00
2022-08-05T15:08:59.580Z,1.98
2022-08-05T15:11:51.240Z,1.80
2022-08-05T15:14:33.548Z,2.72
2022-08-05T15:17:04.700Z,1.85
2022-08-05T15:19:31.906Z,1.60
2022-08-05T15:22:00.241Z,2.15
2022-08-05T15:24:27.948Z,1.58
2022-08-05T15:26:55.880Z,1.65
2022-08-05T15:29:23.311Z,1.90
2022-08-05T15:31:52.744Z,2.10
2022-08-05T15:34:33.177Z,1.70
2022-08-05T15:37:06.151Z,2.00
2022-08-05T15:41:00.645Z,1.73
2022-08-05T15:42:54.699Z,1.50
2022-08-05T15:45:06.286Z,1.60
2022-08-05T15:47:32.806Z,1.60
2022-08-05T15:50:03.044Z,1.42
2022-08-05T15:52:53.693Z,1.10
2022-08-05T15:55:16.811Z,1.60
2022-08-05T15:57:44.962Z,1.48
2022-08-05T16:00:12.595Z,1.25
2022-08-05T16:02:43.343Z,1.38
2022-08-05T16:05:11.275Z,1.60
2022-08-05T16:07:37.923Z,1.27
2022-08-05T16:10:12.718Z,0.80
2022-08-05T16:12:40.226Z,1.00
2022-08-05T16:15:06.839Z,0.75
2022-08-05T16:17:36.109Z,0.80
2022-08-05T16:20:07.698Z,0.65
2022-08-05T16:22:38.255Z,0.85
2022-08-05T16:25:09.583Z,0.68
2022-08-05T16:28:00.413Z,0.75
2022-08-05T16:30:25.857Z,0.68
2022-08-05T16:32:54.219Z,0.60
2022-08-05T16:35:27.911Z,0.70
2022-08-05T16:38:02.700Z,0.50
2022-08-05T16:40:51.627Z,0.60
2022-08-05T16:43:23.690Z,0.80
2022-08-05T16:46:04.637Z,0.60
2022-08-05T16:48:37.247Z,0.70
2022-08-05T16:51:03.795Z,0.90
2022-08-05T16:54:05.933Z,0.90
2022-08-05T16:56:22.072Z,0.75
2022-08-05T16:58:49.781Z,0.80
2022-08-05T17:01:16.484Z,0.60
2022-08-05T17:03:45.385Z,0.60
2022-08-05T17:06:11.933Z,0.50
2022-08-05T17:08:52.903Z,0.52
2022-08-05T17:11:25.541Z,0.60
2022-08-05T17:14:05.182Z,0.85
2022-08-05T17:16:36.368Z,0.90
2022-08-05T17:19:07.620Z,0.60
2022-08-05T17:21:37.238Z,0.60
2022-08-05T17:24:19.428Z,0.80
2022-08-05T17:26:55.376Z,0.63
2022-08-05T17:29:33.083Z,0.80
2022-08-05T17:32:06.139Z,1.05
2022-08-05T17:34:34.854Z,1.05
2022-08-05T17:37:01.495Z,1.00
2022-08-05T17:39:33.156Z,1.00
2022-08-05T17:42:17.558Z,1.20
2022-08-05T17:44:50.357Z,0.80
2022-08-05T17:47:21.965Z,1.30
2022-08-05T17:50:00.457Z,1.02
2022-08-05T17:52:32.330Z,0.90
2022-08-05T17:54:59.365Z,0.93
2022-08-05T17:57:25.761Z,0.82
2022-08-05T18:00:03.564Z,0.88
2022-08-05T18:02:32.342Z,0.70
2022-08-05T18:04:58.856Z,0.90
2022-08-05T18:07:32.777Z,0.80
2022-08-05T18:10:10.190Z,1.00
2022-08-05T18:12:37.152Z,1.00
2022-08-05T18:15:04.766Z,1.20
2022-08-05T18:17:59.194Z,0.77
2022-08-05T18:20:18.306Z,0.82
2022-08-05T18:22:54.686Z,0.77
2022-08-05T18:25:23.654Z,0.75
2022-08-05T18:27:52.285Z,0.82
2022-08-05T18:30:19.490Z,1.08
2022-08-05T18:32:53.298Z,0.95
2022-08-05T18:35:28.394Z,0.88
2022-08-05T18:38:12.546Z,0.90
2022-08-05T18:41:53.397Z,1.08
2022-08-05T18:43:31.654Z,1.15
2022-08-05T18:46:05.159Z,0.90
2022-08-05T18:48:33.552Z,1.02
2022-08-05T18:51:01.620Z,0.80
2022-08-05T18:53:50.132Z,1.23
2022-08-05T18:56:16.879Z,0.63
2022-08-05T18:58:48.177Z,0.70
2022-08-05T19:01:17.894Z,0.73
2022-08-05T19:03:53.079Z,1.23
2022-08-05T19:06:22.175Z,0.82
2022-08-05T19:09:01.514Z,1.38
2022-08-05T19:11:28.710Z,1.27
2022-08-05T19:14:52.132Z,1.10
2022-08-05T19:17:00.823Z,1.40
2022-08-05T19:19:27.179Z,0.85
2022-08-05T19:21:56.960Z,1.17
2022-08-05T19:24:34.901Z,1.10
2022-08-05T19:27:04.187Z,0.90
2022-08-05T19:29:36.289Z,0.80
2022-08-05T19:32:08.545Z,0.90
2022-08-05T19:34:38.049Z,0.98
2022-08-05T19:37:05.005Z,1.15
2022-08-05T19:39:32.012Z,0.90
2022-08-05T19:42:13.441Z,1.02
2022-08-05T19:44:44.668Z,1.05
2022-08-05T19:47:12.355Z,0.95
2022-08-05T19:49:42.529Z,1.10
2022-08-05T19:52:31.587Z,0.80
2022-08-05T19:54:57.883Z,0.90
2022-08-05T19:57:47.296Z,0.90
2022-08-05T20:00:13.488Z,1.00
2022-08-05T20:02:39.836Z,1.08
2022-08-05T20:05:09.584Z,1.05
2022-08-05T20:07:48.701Z,1.00
2022-08-05T20:10:16.287Z,0.93
2022-08-05T20:12:45.974Z,1.23
2022-08-05T20:15:14.539Z,1.20
2022-08-05T20:17:40.892Z,1.00
2022-08-05T20:20:11.034Z,1.25
2022-08-05T20:22:37.559Z,1.02
2022-08-05T20:25:08.529Z,1.45
2022-08-05T20:27:41.960Z,1.40
2022-08-05T20:30:09.275Z,1.60
2022-08-05T20:32:36.411Z,0.85
2022-08-05T20:35:11.430Z,1.10
2022-08-05T20:38:05.592Z,0.95
2022-08-05T20:40:24.606Z,1.00
2022-08-05T20:42:53.401Z,1.42
2022-08-05T20:45:56.374Z,1.25
2022-08-05T20:48:12.799Z,1.67
2022-08-05T20:50:46.788Z,1.20
2022-08-05T20:53:15.972Z,1.38
2022-08-05T20:55:56.062Z,1.23
2022-08-05T20:58:29.101Z,0.88
2022-08-05T21:00:56.845Z,1.00
2022-08-05T21:03:23.403Z,0.98
2022-08-05T21:05:54.740Z,0.90
2022-08-05T21:08:35.927Z,1.00
2022-08-05T21:11:12.858Z,1.10
2022-08-05T21:13:59.042Z,1.10
2022-08-05T21:16:30.025Z,1.30
2022-08-05T21:18:59.983Z,1.10
2022-08-05T21:21:39.063Z,1.30
2022-08-05T21:24:06.795Z,1.40
2022-08-05T21:26:33.635Z,1.20
2022-08-05T21:29:03.774Z,1.15
2022-08-05T21:31:41.501Z,1.30
2022-08-05T21:34:08.417Z,1.70
2022-08-05T21:36:37.049Z,1.70
2022-08-05T21:39:03.587Z,1.50
2022-08-05T21:41:33.804Z,1.30
2022-08-05T21:44:01.544Z,1.40
2022-08-05T21:46:29.864Z,1.48
2022-08-05T21:48:56.568Z,1.23
2022-08-05T21:51:25.081Z,1.48
2022-08-05T21:54:09.538Z,1.40
2022-08-05T21:56:35.870Z,1.50
2022-08-05T22:01:54.517Z,1.20
2022-08-05T22:04:21.302Z,1.30
2022-08-05T22:06:52.513Z,1.75
2022-08-05T22:09:21.512Z,1.35
2022-08-05T22:11:48.207Z,1.60
2022-08-05T22:14:33.929Z,1.35
2022-08-05T22:17:06.758Z,1.30
2022-08-05T22:20:01.088Z,1.60
2022-08-05T22:22:27.264Z,1.50
2022-08-05T22:24:55.761Z,1.67
2022-08-05T22:27:22.831Z,1.30
2022-08-05T22:29:49.187Z,1.50
2022-08-05T22:32:20.664Z,1.30
2022-08-05T22:34:49.388Z,1.58
2022-08-05T22:37:15.787Z,1.10
2022-08-05T22:39:42.251Z,1.30
2022-08-05T22:42:15.331Z,1.40
2022-08-05T22:44:42.746Z,1.20
2022-08-05T22:47:29.347Z,1.38
2022-08-05T22:50:20.850Z,1.13
2022-08-05T22:52:48.217Z,1.23
2022-08-05T22:55:19.021Z,1.35
2022-08-05T22:57:46.712Z,1.48
2022-08-05T23:00:17.949Z,1.40
2022-08-05T23:02:47.811Z,1.63
2022-08-05T23:05:15.313Z,1.45
2022-08-05T23:07:48.651Z,1.50
2022-08-05T23:10:19.894Z,1.50
2022-08-05T23:12:51.542Z,1.60
2022-08-05T23:15:21.514Z,1.45
2022-08-05T23:18:00.645Z,1.50
2022-08-05T23:20:29.580Z,1.60
2022-08-05T23:22:56.578Z,1.60
2022-08-05T23:25:52.295Z,1.52
2022-08-05T23:28:11.927Z,1.52
2022-08-05T23:30:40.683Z,1.58
2022-08-05T23:33:22.007Z,1.40
2022-08-05T23:35:52.475Z,1.60
2022-08-05T23:38:22.767Z,1.75
2022-08-05T23:40:49.531Z,1.45
2022-08-05T23:43:24.842Z,1.70
2022-08-05T23:46:02.952Z,1.80
2022-08-05T23:48:29.282Z,1.60
2022-08-05T23:50:55.620Z,2.17
2022-08-05T23:53:22.622Z,1.92
2022-08-05T23:55:49.565Z,1.95
2022-08-05T23:58:31.914Z,1.90
